createdAt,value
2018-06-02T00:00:19.536Z,49.33
2018-06-02T00:02:47.791Z,47.60
2018-06-02T00:05:15.358Z,50.37
2018-06-02T00:07:42.841Z,45.90
2018-06-02T00:10:11.100Z,45.93
2018-06-02T00:12:38.576Z,45.27
2018-06-02T00:15:06.834Z,42.83
2018-06-02T00:17:34.312Z,41.30
2018-06-02T00:20:02.572Z,44.00
2018-06-02T00:22:30.036Z,42.97
2018-06-02T00:24:58.306Z,40.87
2018-06-02T00:27:25.779Z,43.87
2018-06-02T00:29:54.043Z,47.27
2018-06-02T00:32:21.527Z,47.83
2018-06-02T00:34:49.016Z,41.40
2018-06-02T00:37:16.572Z,44.17
2018-06-02T00:39:44.093Z,45.53
2018-06-02T00:42:12.353Z,47.83
2018-06-02T00:44:40.612Z,42.87
2018-06-02T00:47:08.102Z,42.33
2018-06-02T00:49:36.392Z,39.50
2018-06-02T00:52:04.663Z,38.33
2018-06-02T00:54:44.824Z,37.37
2018-06-02T00:57:13.071Z,35.40
2018-06-02T00:59:40.579Z,39.13
2018-06-02T01:02:08.051Z,35.77
2018-06-02T01:04:35.558Z,38.17
2018-06-02T01:07:03.131Z,36.90
2018-06-02T01:09:31.399Z,35.70
2018-06-02T01:11:58.971Z,35.30
2018-06-02T01:14:27.242Z,36.20
2018-06-02T01:16:54.735Z,35.17
2018-06-02T01:19:22.215Z,36.13
2018-06-02T01:21:49.695Z,33.97
2018-06-02T01:24:17.179Z,33.50
2018-06-02T01:26:44.745Z,34.50
2018-06-02T01:29:12.992Z,36.00
2018-06-02T01:31:40.480Z,36.67
2018-06-02T01:34:08.747Z,34.17
2018-06-02T01:36:36.228Z,33.33
2018-06-02T01:39:05.263Z,35.50
2018-06-02T01:41:32.757Z,35.90
2018-06-02T01:44:00.241Z,35.47
2018-06-02T01:46:28.507Z,35.53
2018-06-02T01:48:56.756Z,38.07
2018-06-02T01:51:24.243Z,36.80
2018-06-02T01:53:52.494Z,35.00
2018-06-02T01:56:19.979Z,34.87
2018-06-02T01:58:48.242Z,36.40
2018-06-02T02:01:15.739Z,34.13
2018-06-02T02:03:43.281Z,35.33
2018-06-02T02:06:11.533Z,36.90
2018-06-02T02:08:39.019Z,36.27
2018-06-02T02:11:07.283Z,39.80
2018-06-02T02:13:34.756Z,37.57
2018-06-02T02:16:03.021Z,39.13
2018-06-02T02:18:31.295Z,37.17
2018-06-02T02:20:59.570Z,37.87
2018-06-02T02:23:27.130Z,38.63
2018-06-02T02:25:54.612Z,39.17
2018-06-02T02:28:22.865Z,39.33
2018-06-02T02:30:50.431Z,42.73
2018-06-02T02:33:17.991Z,41.23
2018-06-02T02:35:45.471Z,40.50
2018-06-02T02:38:14.077Z,40.07
2018-06-02T02:40:41.640Z,41.03
2018-06-02T02:43:09.131Z,37.87
2018-06-02T02:45:36.599Z,39.77
2018-06-02T02:48:04.107Z,39.63
2018-06-02T02:50:31.643Z,41.37
2018-06-02T02:52:59.921Z,41.37
2018-06-02T02:55:28.153Z,40.77
2018-06-02T02:57:55.659Z,41.27
2018-06-02T03:00:23.947Z,40.30
2018-06-02T03:02:52.217Z,41.93
2018-06-02T03:05:20.450Z,40.40
2018-06-02T03:07:48.050Z,40.33
2018-06-02T03:10:16.317Z,37.93
2018-06-02T03:12:43.802Z,38.83
2018-06-02T03:15:12.063Z,38.60
2018-06-02T03:17:40.337Z,35.60
2018-06-02T03:20:07.814Z,39.73
2018-06-02T03:22:36.068Z,41.77
2018-06-02T03:25:03.546Z,38.87
2018-06-02T03:27:31.808Z,39.27
2018-06-02T03:29:59.383Z,36.87
2018-06-02T03:32:27.663Z,35.60
2018-06-02T03:34:55.908Z,36.03
2018-06-02T03:37:23.406Z,36.97
2018-06-02T03:39:51.644Z,35.40
2018-06-02T03:42:19.134Z,37.13
2018-06-02T03:44:47.391Z,37.90
2018-06-02T03:47:14.892Z,38.37
2018-06-02T03:49:42.363Z,38.10
2018-06-02T03:52:09.890Z,38.30
2018-06-02T03:54:38.143Z,39.30
2018-06-02T03:57:05.623Z,37.57
2018-06-02T03:59:33.900Z,37.93
2018-06-02T04:02:02.146Z,38.43
2018-06-02T04:04:29.631Z,43.70
2018-06-02T04:06:57.879Z,39.30
2018-06-02T04:09:25.376Z,39.47
2018-06-02T04:11:53.630Z,39.77
2018-06-02T04:14:21.125Z,43.87
2018-06-02T04:16:48.725Z,40.80
2018-06-02T04:19:16.225Z,41.97
2018-06-02T04:21:44.479Z,43.93
2018-06-02T04:24:12.055Z,44.57
2018-06-02T04:26:39.548Z,45.77
2018-06-02T04:29:07.100Z,44.97
2018-06-02T04:31:35.352Z,42.93
2018-06-02T04:34:02.911Z,42.00
2018-06-02T04:36:30.391Z,41.60
2018-06-02T04:38:58.650Z,41.17
2018-06-02T04:41:26.151Z,41.47
2018-06-02T04:43:53.649Z,41.13
2018-06-02T04:46:21.231Z,43.77
2018-06-02T04:48:48.727Z,46.13
2018-06-02T04:51:16.220Z,43.70
2018-06-02T04:53:43.714Z,41.43
2018-06-02T04:56:11.989Z,42.07
2018-06-02T04:58:39.495Z,42.57
2018-06-02T05:01:06.984Z,42.60
2018-06-02T05:03:39.361Z,43.60
2018-06-02T05:06:07.619Z,44.57
2018-06-02T05:08:35.113Z,44.63
2018-06-02T05:11:03.395Z,42.33
2018-06-02T05:13:31.681Z,44.43
2018-06-02T05:15:59.947Z,42.57
2018-06-02T05:18:27.427Z,39.87
2018-06-02T05:20:55.704Z,39.90
2018-06-02T05:23:23.978Z,43.77
2018-06-02T05:25:52.234Z,44.20
2018-06-02T05:28:20.472Z,43.07
2018-06-02T05:30:47.967Z,43.70
2018-06-02T05:33:15.448Z,46.47
2018-06-02T05:35:43.770Z,43.27
2018-06-02T05:38:11.251Z,42.20
2018-06-02T05:40:38.747Z,46.00
2018-06-02T05:43:07.024Z,48.93
2018-06-02T05:45:35.300Z,45.40
2018-06-02T05:48:03.592Z,46.63
2018-06-02T05:50:31.096Z,43.93
2018-06-02T05:52:58.599Z,45.47
2018-06-02T05:55:26.857Z,46.33
2018-06-02T06:00:29.059Z,54.83
2018-06-02T06:02:57.352Z,48.37
2018-06-02T06:05:25.606Z,44.40
2018-06-02T06:07:53.074Z,48.10
2018-06-02T06:10:21.355Z,48.70
2018-06-02T06:12:49.610Z,43.90
2018-06-02T06:15:17.218Z,49.87
2018-06-02T06:17:44.698Z,43.03
2018-06-02T06:20:12.219Z,45.90
2018-06-02T06:22:40.489Z,39.80
2018-06-02T06:25:08.765Z,40.27
2018-06-02T06:27:37.010Z,43.03
2018-06-02T06:30:04.495Z,41.53
2018-06-02T06:32:32.750Z,44.10
2018-06-02T06:35:00.235Z,41.40
2018-06-02T06:37:28.494Z,40.50
2018-06-02T06:39:55.979Z,46.50
2018-06-02T06:42:24.247Z,42.00
2018-06-02T06:44:52.500Z,40.43
2018-06-02T06:47:20.081Z,41.93
2018-06-02T06:49:47.646Z,40.90
2018-06-02T06:52:15.915Z,44.80
2018-06-02T06:54:43.487Z,40.17
2018-06-02T06:57:11.762Z,39.53
2018-06-02T06:59:39.232Z,40.17
2018-06-02T07:02:07.494Z,38.97
2018-06-02T07:04:35.053Z,37.87
2018-06-02T07:07:02.572Z,39.57
2018-06-02T07:09:30.056Z,39.23
2018-06-02T07:11:57.562Z,37.77
2018-06-02T07:14:25.050Z,36.73
2018-06-02T07:16:52.541Z,37.77
2018-06-02T07:19:20.794Z,41.47
2018-06-02T07:21:48.427Z,36.63
2018-06-02T07:24:16.671Z,39.00
2018-06-02T07:26:44.952Z,37.93
2018-06-02T07:29:13.192Z,37.73
2018-06-02T07:31:40.872Z,38.70
2018-06-02T07:34:08.372Z,44.17
2018-06-02T07:36:36.637Z,39.13
2018-06-02T07:39:05.800Z,38.83
2018-06-02T07:41:34.055Z,38.53
2018-06-02T07:44:01.539Z,36.07
2018-06-02T07:46:29.800Z,38.07
2018-06-02T07:48:57.289Z,39.40
2018-06-02T07:51:24.768Z,35.67
2018-06-02T07:53:53.027Z,40.53
2018-06-02T07:56:21.285Z,37.37
2018-06-02T07:58:48.992Z,37.20
2018-06-02T08:01:19.031Z,35.60
2018-06-02T08:03:46.555Z,35.87
2018-06-02T08:06:14.040Z,40.87
2018-06-02T08:08:41.587Z,40.53
2018-06-02T08:11:09.508Z,39.17
2018-06-02T08:13:37.803Z,39.93
2018-06-02T08:16:05.281Z,38.83
2018-06-02T08:18:33.538Z,37.70
2018-06-02T08:21:01.825Z,37.80
2018-06-02T08:23:29.332Z,37.63
2018-06-02T08:25:56.824Z,36.93
2018-06-02T08:28:24.425Z,37.50
2018-06-02T08:30:52.707Z,40.93
2018-06-02T08:33:20.672Z,38.80
2018-06-02T08:35:48.970Z,37.83
2018-06-02T08:38:16.496Z,37.73
2018-06-02T08:40:44.017Z,36.97
2018-06-02T08:43:11.538Z,33.37
2018-06-02T08:45:39.796Z,34.53
2018-06-02T08:48:07.301Z,29.67
2018-06-02T08:50:34.770Z,32.73
2018-06-02T08:53:02.264Z,32.67
2018-06-02T08:55:29.740Z,28.67
2018-06-02T08:57:58.016Z,25.27
2018-06-02T09:00:26.316Z,26.93
2018-06-02T09:02:53.860Z,27.90
2018-06-02T09:05:22.176Z,25.63
2018-06-02T09:07:49.635Z,27.77
2018-06-02T09:10:17.165Z,25.77
2018-06-02T09:12:45.523Z,27.77
2018-06-02T09:15:13.758Z,26.93
2018-06-02T09:17:41.247Z,24.30
2018-06-02T09:20:10.253Z,27.77
2018-06-02T09:22:38.525Z,29.57
2018-06-02T09:25:06.103Z,26.70
2018-06-02T09:27:34.406Z,28.07
2018-06-02T09:30:01.969Z,28.57
2018-06-02T09:32:29.471Z,26.77
2018-06-02T09:35:00.789Z,25.77
2018-06-02T09:37:28.274Z,29.07
2018-06-02T09:39:55.778Z,29.23
2018-06-02T09:42:24.054Z,28.00
2018-06-02T09:44:51.561Z,29.03
2018-06-02T09:47:19.035Z,29.23
2018-06-02T09:49:46.625Z,31.23
2018-06-02T09:52:14.875Z,30.40
2018-06-02T09:54:42.367Z,29.73
2018-06-02T09:57:09.854Z,31.03
2018-06-02T09:59:37.347Z,33.67
2018-06-02T10:02:04.842Z,29.63
2018-06-02T10:04:33.142Z,28.67
2018-06-02T10:07:01.364Z,28.57
2018-06-02T10:09:28.857Z,31.23
2018-06-02T10:11:57.113Z,32.40
2018-06-02T10:14:24.627Z,31.97
2018-06-02T10:16:52.112Z,32.57
2018-06-02T10:19:19.598Z,34.43
2018-06-02T10:21:47.852Z,36.40
2018-06-02T10:24:15.356Z,37.17
2018-06-02T10:26:42.839Z,37.17
2018-06-02T10:29:10.330Z,39.50
2018-06-02T10:31:37.824Z,40.30
2018-06-02T10:34:06.083Z,42.70
2018-06-02T10:36:34.362Z,41.30
2018-06-02T10:39:01.933Z,40.33
2018-06-02T10:41:30.219Z,42.97
2018-06-02T10:43:58.466Z,41.30
2018-06-02T10:46:25.973Z,41.17
2018-06-02T10:48:53.460Z,40.10
2018-06-02T10:51:20.991Z,39.47
2018-06-02T10:53:48.510Z,39.13
2018-06-02T10:56:16.014Z,37.60
2018-06-02T10:58:43.507Z,37.93
2018-06-02T11:01:10.992Z,41.17
2018-06-02T11:03:38.486Z,39.83
2018-06-02T11:06:06.036Z,37.63
2018-06-02T11:08:34.284Z,39.97
2018-06-02T11:11:01.789Z,38.17
2018-06-02T11:13:29.285Z,34.67
2018-06-02T11:15:56.791Z,32.87
2018-06-02T11:18:25.027Z,36.97
2018-06-02T11:20:52.532Z,34.00
2018-06-02T11:23:20.062Z,35.90
2018-06-02T11:25:47.597Z,33.37
2018-06-02T11:28:15.050Z,36.00
2018-06-02T11:30:42.648Z,39.40
2018-06-02T11:33:10.888Z,39.07
2018-06-02T11:35:38.492Z,39.80
2018-06-02T11:38:06.735Z,40.37
2018-06-02T11:40:34.231Z,40.27
2018-06-02T11:43:02.524Z,40.33
2018-06-02T11:45:30.082Z,38.30
2018-06-02T11:47:58.160Z,38.10
2018-06-02T11:50:25.643Z,34.23
2018-06-02T11:52:53.147Z,38.87
2018-06-02T11:55:20.907Z,39.63
2018-06-02T11:57:48.484Z,38.60
2018-06-02T12:00:16.761Z,41.07
2018-06-02T12:02:45.028Z,40.33
2018-06-02T12:05:12.520Z,38.67
2018-06-02T12:07:40.051Z,39.43
2018-06-02T12:10:07.621Z,36.40
2018-06-02T12:12:35.909Z,35.27
2018-06-02T12:15:04.157Z,35.90
2018-06-02T12:17:31.753Z,34.17
2018-06-02T12:20:00.018Z,32.80
2018-06-02T12:22:28.279Z,30.83
2018-06-02T12:24:55.768Z,32.40
2018-06-02T12:27:23.401Z,31.33
2018-06-02T12:29:50.883Z,32.47
2018-06-02T12:32:18.420Z,34.10
2018-06-02T12:34:45.932Z,33.30
2018-06-02T12:37:13.449Z,34.10
2018-06-02T12:39:41.681Z,34.13
2018-06-02T12:42:09.194Z,35.43
2018-06-02T12:44:37.470Z,34.33
2018-06-02T12:47:05.737Z,34.87
2018-06-02T12:49:33.218Z,35.43
2018-06-02T12:52:01.518Z,35.40
2018-06-02T12:54:29.004Z,37.60
2018-06-02T12:56:56.504Z,36.57
2018-06-02T12:59:24.758Z,37.43
2018-06-02T13:01:52.338Z,34.73
2018-06-02T13:04:19.859Z,31.77
2018-06-02T13:06:47.343Z,41.83
2018-06-02T13:09:14.843Z,33.33
2018-06-02T13:11:42.383Z,35.90
2018-06-02T13:14:10.753Z,38.73
2018-06-02T13:16:39.216Z,35.53
2018-06-02T13:19:06.975Z,34.77
2018-06-02T13:21:34.553Z,38.07
2018-06-02T13:24:02.241Z,36.70
2018-06-02T13:26:31.514Z,76.47
2018-06-02T13:28:59.091Z,76.13
2018-06-02T13:31:27.387Z,36.77
2018-06-02T13:33:54.952Z,60.60
2018-06-02T13:36:22.591Z,31.13
2018-06-02T13:38:50.888Z,39.03
2018-06-02T13:41:18.365Z,93.70
2018-06-02T13:43:47.881Z,40.90
2018-06-02T13:46:15.394Z,72.57
2018-06-02T13:48:43.674Z,60.47
2018-06-02T13:51:14.519Z,37.70
2018-06-02T13:53:42.102Z,87.33
2018-06-02T13:56:09.571Z,83.00
2018-06-02T13:58:37.822Z,56.37
2018-06-02T14:01:05.321Z,43.13
2018-06-02T14:03:32.818Z,34.70
2018-06-02T14:06:01.084Z,30.60
2018-06-02T14:08:28.646Z,39.87
2018-06-02T14:10:56.219Z,69.80
2018-06-02T14:13:23.778Z,32.83
2018-06-02T14:15:51.265Z,34.90
2018-06-02T14:18:18.750Z,41.37
2018-06-02T14:20:46.232Z,30.23
2018-06-02T14:23:13.816Z,38.20
2018-06-02T14:25:41.316Z,38.63
2018-06-02T14:28:08.842Z,38.63
2018-06-02T14:30:37.121Z,37.00
2018-06-02T14:33:05.373Z,35.40
2018-06-02T14:35:32.952Z,28.30
2018-06-02T14:38:01.266Z,24.13
2018-06-02T14:40:28.703Z,28.00
2018-06-02T14:42:56.948Z,39.40
2018-06-02T14:45:24.524Z,26.17
2018-06-02T14:47:51.991Z,28.10
2018-06-02T14:50:20.256Z,26.83
2018-06-02T14:52:47.741Z,26.93
2018-06-02T14:55:15.287Z,28.77
2018-06-02T14:57:42.747Z,27.63
2018-06-02T15:00:11.021Z,28.80
2018-06-02T15:02:39.283Z,34.40
2018-06-02T15:05:07.535Z,32.83
2018-06-02T15:07:35.066Z,35.63
2018-06-02T15:10:02.573Z,30.33
2018-06-02T15:12:30.038Z,32.17
2018-06-02T15:14:57.616Z,31.57
2018-06-02T15:17:25.851Z,35.00
2018-06-02T15:19:53.351Z,28.43
2018-06-02T15:22:21.634Z,31.13
2018-06-02T15:24:49.899Z,33.80
2018-06-02T15:27:17.367Z,28.77
2018-06-02T15:29:45.628Z,34.27
2018-06-02T15:32:13.132Z,33.27
2018-06-02T15:34:40.643Z,32.53
2018-06-02T15:37:08.111Z,32.20
2018-06-02T15:39:35.629Z,33.27
2018-06-02T15:42:03.127Z,31.10
2018-06-02T15:44:30.591Z,34.00
2018-06-02T15:46:58.080Z,36.53
2018-06-02T15:49:25.573Z,29.93
2018-06-02T15:51:53.082Z,32.50
2018-06-02T15:54:22.019Z,31.63
2018-06-02T15:56:49.552Z,32.23
2018-06-02T15:59:17.035Z,33.60
2018-06-02T16:01:44.551Z,38.27
2018-06-02T16:04:12.838Z,34.47
2018-06-02T16:06:40.330Z,33.60
2018-06-02T16:09:07.820Z,31.17
2018-06-02T16:11:35.316Z,35.67
2018-06-02T16:14:03.576Z,33.17
2018-06-02T16:16:31.863Z,30.57
2018-06-02T16:19:00.126Z,32.13
2018-06-02T16:21:27.620Z,30.13
2018-06-02T16:23:55.109Z,30.67
2018-06-02T16:26:22.711Z,28.47
2018-06-02T16:28:50.958Z,29.20
2018-06-02T16:31:18.462Z,27.83
2018-06-02T16:33:46.807Z,33.97
2018-06-02T16:36:14.269Z,29.87
2018-06-02T16:38:42.818Z,34.83
2018-06-02T16:41:10.337Z,33.70
2018-06-02T16:43:38.592Z,31.03
2018-06-02T16:46:06.085Z,34.97
2018-06-02T16:48:34.333Z,32.07
2018-06-02T16:51:01.845Z,30.60
2018-06-02T16:53:29.356Z,35.17
2018-06-02T16:55:56.837Z,35.97
2018-06-02T16:58:25.083Z,31.90
2018-06-02T17:00:54.091Z,32.70
2018-06-02T17:03:22.354Z,36.17
2018-06-02T17:05:50.652Z,32.63
2018-06-02T17:08:18.899Z,36.43
2018-06-02T17:10:46.402Z,32.87
2018-06-02T17:13:13.913Z,35.23
2018-06-02T17:15:42.168Z,35.90
2018-06-02T17:18:09.675Z,31.47
2018-06-02T17:20:37.939Z,32.33
2018-06-02T17:23:05.435Z,33.70
2018-06-02T17:25:32.975Z,34.43
2018-06-02T17:28:01.267Z,31.67
2018-06-02T17:30:28.760Z,35.93
2018-06-02T17:32:56.276Z,30.83
2018-06-02T17:35:24.631Z,29.57
2018-06-02T17:37:52.141Z,32.40
2018-06-02T17:40:19.629Z,31.17
2018-06-02T17:42:47.262Z,30.93
2018-06-02T17:45:14.840Z,33.23
2018-06-02T17:47:42.380Z,32.97
2018-06-02T17:50:09.879Z,36.67
2018-06-02T17:52:38.255Z,32.73
2018-06-02T17:55:05.795Z,37.30
2018-06-02T17:57:33.354Z,29.50
2018-06-02T18:00:00.866Z,31.33
2018-06-02T18:02:28.438Z,33.13
2018-06-02T18:04:56.693Z,31.97
2018-06-02T18:07:24.962Z,32.03
2018-06-02T18:10:20.111Z,33.70
2018-06-02T18:12:48.395Z,29.83
2018-06-02T18:15:16.489Z,28.23
2018-06-02T18:17:44.611Z,31.97
2018-06-02T18:20:12.715Z,30.30
2018-06-02T18:22:40.820Z,29.73
2018-06-02T18:25:08.904Z,30.83
2018-06-02T18:27:37.049Z,30.10
2018-06-02T18:30:05.566Z,31.60
2018-06-02T18:32:33.658Z,32.73
2018-06-02T18:35:01.762Z,32.47
2018-06-02T18:37:29.837Z,30.67
2018-06-02T18:39:57.996Z,33.57
2018-06-02T18:42:26.109Z,32.53
2018-06-02T18:44:54.193Z,32.53
2018-06-02T18:47:22.312Z,31.33
2018-06-02T18:49:50.505Z,31.67
2018-06-02T18:52:19.017Z,31.97
2018-06-02T18:54:47.135Z,35.30
2018-06-02T18:57:15.259Z,31.33
2018-06-02T18:59:43.445Z,31.40
2018-06-02T19:02:11.581Z,32.73
2018-06-02T19:04:41.797Z,29.47
2018-06-02T19:07:09.969Z,32.57
2018-06-02T19:09:38.202Z,32.33
2018-06-02T19:12:06.383Z,31.37
2018-06-02T19:14:34.495Z,31.20
2018-06-02T19:17:02.724Z,37.00
2018-06-02T19:19:30.883Z,35.63
2018-06-02T19:21:59.011Z,31.27
2018-06-02T19:24:27.227Z,34.17
2018-06-02T19:26:55.499Z,32.53
2018-06-02T19:29:23.634Z,34.37
2018-06-02T19:31:51.735Z,37.90
2018-06-02T19:34:20.030Z,29.50
2018-06-02T19:36:48.244Z,35.33
2018-06-02T19:39:16.347Z,33.83
2018-06-02T19:41:44.224Z,34.17
2018-06-02T19:44:12.451Z,33.90
2018-06-02T19:46:40.674Z,32.27
2018-06-02T19:49:08.846Z,38.37
2018-06-02T19:51:37.003Z,32.37
2018-06-02T19:54:05.180Z,30.20
2018-06-02T19:56:34.074Z,32.17
2018-06-02T19:59:02.160Z,33.23
2018-06-02T20:01:30.275Z,33.77
2018-06-02T20:03:58.488Z,31.30
2018-06-02T20:06:26.589Z,30.70
2018-06-02T20:08:54.874Z,31.23
2018-06-02T20:11:23.725Z,31.43
2018-06-02T20:13:51.826Z,30.83
2018-06-02T20:16:19.903Z,35.73
2018-06-02T20:18:48.128Z,27.50
2018-06-02T20:21:16.310Z,32.50
2018-06-02T20:23:44.451Z,30.60
2018-06-02T20:26:12.668Z,32.00
2018-06-02T20:28:40.789Z,32.07
2018-06-02T20:31:09.005Z,31.77
2018-06-02T20:33:37.109Z,26.60
2018-06-02T20:36:05.534Z,31.37
2018-06-02T20:38:34.018Z,31.00
2018-06-02T20:41:02.183Z,34.53
2018-06-02T20:43:32.621Z,27.63
2018-06-02T20:46:01.057Z,28.37
2018-06-02T20:48:29.168Z,27.73
2018-06-02T20:50:57.385Z,27.37
2018-06-02T20:53:25.590Z,25.83
2018-06-02T20:55:55.278Z,29.87
2018-06-02T20:58:23.467Z,29.20
2018-06-02T21:00:51.578Z,28.87
2018-06-02T21:03:19.761Z,29.23
2018-06-02T21:05:47.982Z,29.30
2018-06-02T21:08:16.073Z,29.70
2018-06-02T21:10:44.212Z,28.03
2018-06-02T21:13:12.296Z,29.37
2018-06-02T21:15:40.412Z,27.73
2018-06-02T21:18:09.536Z,27.87
2018-06-02T21:20:37.700Z,28.43
2018-06-02T21:23:05.843Z,28.67
2018-06-02T21:25:33.948Z,28.27
2018-06-02T21:28:02.085Z,30.13
2018-06-02T21:30:30.983Z,28.40
2018-06-02T21:32:59.121Z,31.47
2018-06-02T21:35:27.229Z,28.57
2018-06-02T21:37:55.327Z,29.60
2018-06-02T21:40:24.270Z,30.83
2018-06-02T21:42:52.564Z,32.10
2018-06-02T21:45:20.649Z,30.43
2018-06-02T21:47:48.791Z,29.50
2018-06-02T21:50:17.059Z,32.93
2018-06-02T21:52:45.184Z,35.80
2018-06-02T21:55:13.310Z,33.40
2018-06-02T21:57:41.581Z,32.23
2018-06-02T22:00:09.758Z,40.37
2018-06-02T22:02:37.897Z,32.87
2018-06-02T22:05:06.029Z,32.67
2018-06-02T22:07:34.351Z,33.00
2018-06-02T22:10:02.279Z,33.93
2018-06-02T22:12:30.384Z,33.80
2018-06-02T22:14:58.699Z,35.03
2018-06-02T22:17:26.887Z,32.53
2018-06-02T22:19:54.964Z,33.43
2018-06-02T22:22:23.108Z,38.20
2018-06-02T22:24:51.247Z,41.30
2018-06-02T22:27:19.151Z,41.20
2018-06-02T22:29:47.219Z,37.87
2018-06-02T22:32:15.468Z,35.90
2018-06-02T22:34:43.581Z,41.20
2018-06-02T22:37:11.680Z,41.20
2018-06-02T22:39:39.992Z,42.03
2018-06-02T22:42:08.071Z,40.20
2018-06-02T22:44:35.939Z,42.10
2018-06-02T22:47:04.134Z,37.63
2018-06-02T22:49:32.230Z,38.77
2018-06-02T22:52:00.344Z,41.57
2018-06-02T22:54:28.438Z,40.83
2018-06-02T22:56:56.629Z,41.57
2018-06-02T22:59:24.972Z,38.60
2018-06-02T23:01:53.039Z,44.37
2018-06-02T23:04:21.286Z,43.00
2018-06-02T23:06:49.423Z,41.07
2018-06-02T23:09:17.529Z,44.93
2018-06-02T23:11:45.769Z,43.33
2018-06-02T23:14:20.791Z,44.00
2018-06-02T23:16:48.863Z,48.90
2018-06-02T23:19:16.959Z,47.60
2018-06-02T23:21:45.288Z,46.10
2018-06-02T23:24:13.809Z,43.40
2018-06-02T23:26:41.880Z,44.83
2018-06-02T23:29:10.011Z,51.77
2018-06-02T23:31:38.139Z,50.00
2018-06-02T23:34:06.232Z,52.13
2018-06-02T23:36:34.330Z,46.67
2018-06-02T23:39:02.499Z,46.97
2018-06-02T23:41:30.579Z,50.37
2018-06-02T23:43:58.657Z,48.70
2018-06-02T23:46:26.841Z,49.67
2018-06-02T23:48:54.963Z,51.17
2018-06-02T23:51:23.084Z,57.30
2018-06-02T23:53:51.354Z,56.30
2018-06-02T23:56:19.464Z,52.13
2018-06-02T23:58:47.567Z,54.13
